Wetterdaten: Woche 22.03.10 - 28.03.10 (KW12)
Datum Zeit Temperatur Luftfeuchte Luftdruck Niederschlag Windrichtung Wind
22.03.2010 00:00 4,5 C 93 % 1021,6 hPa 0,0 l/m SW 3,5 km/h (1 Bft)
22.03.2010 01:00 4,3 C 95 % 1021,6 hPa 0,0 l/m N 0,8 km/h (0 Bft)
22.03.2010 02:00 3,9 C 96 % 1021,7 hPa 0,0 l/m N 0,3 km/h (0 Bft)
22.03.2010 03:00 3,7 C 95 % 1021,5 hPa 0,0 l/m SW 0,4 km/h (0 Bft)
22.03.2010 04:00 4,1 C 97 % 1021,5 hPa 0,0 l/m W-SW 2,4 km/h (1 Bft)
22.03.2010 05:00 4,6 C 97 % 1021,5 hPa 0,0 l/m N 0,3 km/h (0 Bft)
22.03.2010 06:00 4,0 C 95 % 1021,5 hPa 0,0 l/m N 0,4 km/h (0 Bft)
22.03.2010 07:00 4,0 C 96 % 1021,9 hPa 0,0 l/m N 0,0 km/h (0 Bft)
22.03.2010 08:00 5,8 C 96 % 1021,9 hPa 0,0 l/m NO 2,3 km/h (1 Bft)
22.03.2010 09:00 8,4 C 84 % 1021,7 hPa 0,0 l/m O-SO 7,0 km/h (2 Bft)
22.03.2010 10:00 9,5 C 77 % 1021,7 hPa 0,0 l/m O 5,3 km/h (1 Bft)
22.03.2010 11:00 10,4 C 73 % 1021,5 hPa 0,0 l/m O 6,0 km/h (2 Bft)
22.03.2010 12:00 11,0 C 69 % 1021,1 hPa 0,0 l/m O 6,4 km/h (2 Bft)
22.03.2010 13:00 12,4 C 64 % 1020,3 hPa 0,0 l/m O 8,2 km/h (2 Bft)
22.03.2010 14:00 13,3 C 60 % 1019,6 hPa 0,0 l/m O-SO 8,3 km/h (2 Bft)
22.03.2010 15:00 13,2 C 58 % 1019,3 hPa 0,0 l/m SO 6,5 km/h (2 Bft)
22.03.2010 16:00 13,1 C 59 % 1019,3 hPa 0,0 l/m S-SO 4,7 km/h (1 Bft)
22.03.2010 17:00 12,6 C 62 % 1019,1 hPa 0,0 l/m S-SW 2,9 km/h (1 Bft)
22.03.2010 18:00 10,7 C 73 % 1019,2 hPa 0,0 l/m N 0,3 km/h (0 Bft)
22.03.2010 19:00 8,1 C 81 % 1019,4 hPa 0,0 l/m N 0,5 km/h (0 Bft)
22.03.2010 20:00 6,8 C 85 % 1019,8 hPa 0,0 l/m N 0,0 km/h (0 Bft)
22.03.2010 21:00 5,6 C 89 % 1020,0 hPa 0,0 l/m N 0,0 km/h (0 Bft)
22.03.2010 22:00 4,8 C 92 % 1020,0 hPa 0,0 l/m N 0,0 km/h (0 Bft)
22.03.2010 23:00 4,2 C 93 % 1020,0 hPa 0,0 l/m N 0,0 km/h (0 Bft)
23.03.2010 00:00 3,6 C 95 % 1019,8 hPa 0,0 l/m N 0,0 km/h (0 Bft)
23.03.2010 01:00 2,9 C 95 % 1019,9 hPa 0,0 l/m N 0,0 km/h (0 Bft)
23.03.2010 02:00 2,3 C 96 % 1019,9 hPa 0,0 l/m N 0,0 km/h (0 Bft)
23.03.2010 03:00 1,5 C 96 % 1019,9 hPa 0,0 l/m N 0,0 km/h (0 Bft)
23.03.2010 04:00 1,4 C 97 % 1019,9 hPa 0,0 l/m N 0,0 km/h (0 Bft)
23.03.2010 05:00 0,8 C 97 % 1020,3 hPa 0,0 l/m N 0,0 km/h (0 Bft)
23.03.2010 06:00 0,2 C 97 % 1020,5 hPa 0,0 l/m N 0,0 km/h (0 Bft)
23.03.2010 07:00 0,7 C 98 % 1021,2 hPa 0,0 l/m N 0,7 km/h (0 Bft)
23.03.2010 08:00 2,2 C 99 % 1021,6 hPa 0,0 l/m N 0,8 km/h (0 Bft)
23.03.2010 09:00 4,5 C 99 % 1021,7 hPa 0,0 l/m S-SW 2,1 km/h (1 Bft)
23.03.2010 10:00 9,0 C 87 % 1021,5 hPa 0,0 l/m S 5,1 km/h (1 Bft)
23.03.2010 11:00 12,1 C 61 % 1020,9 hPa 0,0 l/m O-SO 7,8 km/h (2 Bft)
23.03.2010 12:00 13,8 C 52 % 1020,0 hPa 0,0 l/m S 8,2 km/h (2 Bft)
23.03.2010 13:00 14,8 C 44 % 1019,2 hPa 0,0 l/m O 8,2 km/h (2 Bft)
23.03.2010 14:00 15,5 C 41 % 1018,3 hPa 0,0 l/m N 7,5 km/h (2 Bft)
23.03.2010 15:00 15,8 C 39 % 1017,7 hPa 0,0 l/m O 7,9 km/h (2 Bft)
23.03.2010 16:00 15,8 C 37 % 1017,1 hPa 0,0 l/m NO 9,0 km/h (2 Bft)
23.03.2010 17:00 15,2 C 39 % 1016,6 hPa 0,0 l/m O-NO 9,0 km/h (2 Bft)
23.03.2010 18:00 13,4 C 50 % 1016,5 hPa 0,0 l/m NO 5,5 km/h (1 Bft)
23.03.2010 19:00 10,1 C 63 % 1016,6 hPa 0,0 l/m N 2,3 km/h (1 Bft)
23.03.2010 20:00 8,5 C 69 % 1016,5 hPa 0,0 l/m NO 2,1 km/h (1 Bft)
23.03.2010 21:00 7,7 C 70 % 1016,5 hPa 0,0 l/m NO 3,3 km/h (1 Bft)
23.03.2010 22:00 6,9 C 72 % 1016,3 hPa 0,0 l/m N-NO 4,7 km/h (1 Bft)
23.03.2010 23:00 6,3 C 78 % 1016,1 hPa 0,0 l/m N-NO 4,9 km/h (1 Bft)
24.03.2010 00:00 5,7 C 81 % 1015,8 hPa 0,0 l/m N 4,0 km/h (1 Bft)
24.03.2010 01:00 4,9 C 85 % 1015,6 hPa 0,0 l/m N 3,2 km/h (1 Bft)
24.03.2010 02:00 4,2 C 87 % 1015,1 hPa 0,0 l/m N 3,1 km/h (1 Bft)
24.03.2010 03:00 3,9 C 89 % 1014,5 hPa 0,0 l/m N 4,4 km/h (1 Bft)
24.03.2010 04:00 3,3 C 91 % 1014,2 hPa 0,0 l/m N 4,1 km/h (1 Bft)
24.03.2010 05:00 2,8 C 92 % 1014,2 hPa 0,0 l/m N 3,3 km/h (1 Bft)
24.03.2010 06:00 2,3 C 93 % 1014,2 hPa 0,0 l/m N 1,1 km/h (0 Bft)
24.03.2010 07:00 3,7 C 91 % 1014,4 hPa 0,0 l/m N 3,2 km/h (1 Bft)
24.03.2010 08:00 6,4 C 83 % 1014,5 hPa 0,0 l/m N 3,2 km/h (1 Bft)
24.03.2010 09:00 9,1 C 75 % 1014,4 hPa 0,0 l/m O-NO 4,5 km/h (1 Bft)
24.03.2010 10:00 12,3 C 67 % 1014,1 hPa 0,0 l/m SW 4,7 km/h (1 Bft)
24.03.2010 11:00 15,3 C 57 % 1013,4 hPa 0,0 l/m N-NO 7,5 km/h (2 Bft)
24.03.2010 12:00 17,1 C 50 % 1012,7 hPa 0,0 l/m S-SO 9,3 km/h (2 Bft)
24.03.2010 13:00 18,2 C 43 % 1011,8 hPa 0,0 l/m O 7,8 km/h (2 Bft)
24.03.2010 14:00 18,7 C 42 % 1011,1 hPa 0,0 l/m O 7,9 km/h (2 Bft)
24.03.2010 15:00 19,0 C 34 % 1010,6 hPa 0,0 l/m S-SW 8,3 km/h (2 Bft)
24.03.2010 16:00 18,9 C 34 % 1010,2 hPa 0,0 l/m W-SW 6,5 km/h (2 Bft)
24.03.2010 17:00 18,0 C 36 % 1010,0 hPa 0,0 l/m S-SW 2,9 km/h (1 Bft)
24.03.2010 18:00 14,8 C 52 % 1010,1 hPa 0,0 l/m N 0,1 km/h (0 Bft)
24.03.2010 19:00 12,8 C 59 % 1010,5 hPa 0,0 l/m S-SW 1,1 km/h (0 Bft)
24.03.2010 20:00 11,2 C 67 % 1010,5 hPa 0,0 l/m N 0,7 km/h (0 Bft)
24.03.2010 21:00 9,9 C 74 % 1010,5 hPa 0,0 l/m N 1,2 km/h (1 Bft)
24.03.2010 22:00 8,8 C 79 % 1010,4 hPa 0,0 l/m N 1,6 km/h (1 Bft)
24.03.2010 23:00 7,8 C 82 % 1010,4 hPa 0,0 l/m N 0,7 km/h (0 Bft)
25.03.2010 00:00 7,2 C 84 % 1010,3 hPa 0,0 l/m N 0,5 km/h (0 Bft)
25.03.2010 01:00 6,2 C 87 % 1010,2 hPa 0,0 l/m N 0,1 km/h (0 Bft)
25.03.2010 02:00 5,4 C 90 % 1009,9 hPa 0,0 l/m N 0,0 km/h (0 Bft)
25.03.2010 03:00 4,8 C 91 % 1009,4 hPa 0,0 l/m N 0,7 km/h (0 Bft)
25.03.2010 04:00 4,1 C 91 % 1009,3 hPa 0,0 l/m N 0,3 km/h (0 Bft)
25.03.2010 05:00 3,6 C 93 % 1009,3 hPa 0,0 l/m N 0,7 km/h (0 Bft)
25.03.2010 06:00 3,3 C 93 % 1009,3 hPa 0,0 l/m N 0,0 km/h (0 Bft)
25.03.2010 07:00 5,6 C 90 % 1009,4 hPa 0,0 l/m N 0,3 km/h (0 Bft)
25.03.2010 08:00 9,0 C 77 % 1009,2 hPa 0,0 l/m N 0,0 km/h (0 Bft)
25.03.2010 09:00 12,1 C 61 % 1009,0 hPa 0,0 l/m S-SW 3,7 km/h (1 Bft)
25.03.2010 10:00 15,2 C 50 % 1008,7 hPa 0,0 l/m S-SW 12,2 km/h (2 Bft)
25.03.2010 11:00 18,3 C 40 % 1008,2 hPa 0,0 l/m S-SW 23,3 km/h (4 Bft)
25.03.2010 12:00 20,1 C 33 % 1007,6 hPa 0,0 l/m S-SW 21,3 km/h (4 Bft)
25.03.2010 13:00 20,9 C 30 % 1007,2 hPa 0,0 l/m S-SW 21,3 km/h (4 Bft)
25.03.2010 14:00 21,1 C 30 % 1006,8 hPa 0,0 l/m S-SW 20,9 km/h (4 Bft)
25.03.2010 15:00 20,7 C 31 % 1006,5 hPa 0,0 l/m SW 19,7 km/h (3 Bft)
25.03.2010 16:00 20,3 C 31 % 1006,5 hPa 0,0 l/m SW 21,3 km/h (4 Bft)
25.03.2010 17:00 18,4 C 36 % 1006,6 hPa 0,0 l/m SW 17,6 km/h (3 Bft)
25.03.2010 18:00 17,2 C 37 % 1007,2 hPa 0,0 l/m W-SW 20,5 km/h (4 Bft)
25.03.2010 19:00 15,5 C 39 % 1007,9 hPa 0,0 l/m SW 18,2 km/h (3 Bft)
25.03.2010 20:00 13,6 C 46 % 1008,1 hPa 0,0 l/m SW 11,3 km/h (2 Bft)
25.03.2010 21:00 12,2 C 49 % 1008,2 hPa 0,0 l/m S 3,1 km/h (1 Bft)
25.03.2010 22:00 10,5 C 57 % 1008,2 hPa 0,0 l/m N 2,1 km/h (1 Bft)
25.03.2010 23:00 9,3 C 62 % 1008,4 hPa 0,0 l/m N 0,0 km/h (0 Bft)
26.03.2010 00:00 8,4 C 67 % 1008,3 hPa 0,0 l/m N 0,1 km/h (0 Bft)
26.03.2010 01:00 7,8 C 70 % 1008,3 hPa 0,0 l/m N 0,0 km/h (0 Bft)
26.03.2010 02:00 7,3 C 73 % 1008,1 hPa 0,0 l/m N 0,1 km/h (0 Bft)
26.03.2010 03:00 7,0 C 75 % 1007,6 hPa 0,0 l/m N 0,9 km/h (0 Bft)
26.03.2010 04:00 6,4 C 76 % 1007,0 hPa 0,0 l/m N-NW 2,5 km/h (1 Bft)
26.03.2010 05:00 5,8 C 78 % 1006,4 hPa 0,0 l/m N-NW 2,4 km/h (1 Bft)
26.03.2010 06:00 5,8 C 79 % 1006,0 hPa 0,0 l/m N-NW 7,1 km/h (2 Bft)
26.03.2010 07:00 7,8 C 74 % 1005,5 hPa 0,0 l/m N-NW 4,0 km/h (1 Bft)
26.03.2010 08:00 11,7 C 60 % 1004,6 hPa 0,0 l/m O-NO 7,6 km/h (2 Bft)
26.03.2010 09:00 15,2 C 47 % 1003,3 hPa 0,0 l/m O 10,9 km/h (2 Bft)
26.03.2010 10:00 18,2 C 39 % 1002,0 hPa 0,0 l/m SO 14,6 km/h (3 Bft)
26.03.2010 11:00 20,7 C 31 % 1000,9 hPa 0,0 l/m S-SW 31,6 km/h (5 Bft)
26.03.2010 12:00 18,0 C 43 % 1002,1 hPa 0,0 l/m SW 44,3 km/h (6 Bft)
26.03.2010 13:00 13,5 C 56 % 1005,0 hPa 0,0 l/m W 39,0 km/h (6 Bft)
26.03.2010 14:00 9,7 C 71 % 1007,1 hPa 0,0 l/m SW 35,1 km/h (5 Bft)
26.03.2010 15:00 6,9 C 84 % 1008,5 hPa 0,2 l/m W-SW 33,7 km/h (5 Bft)
26.03.2010 16:00 6,2 C 86 % 1009,0 hPa 0,2 l/m W 27,9 km/h (4 Bft)
26.03.2010 17:00 6,0 C 88 % 1009,5 hPa 0,4 l/m W-SW 20,5 km/h (4 Bft)
26.03.2010 18:00 5,6 C 91 % 1010,0 hPa 0,6 l/m SW 16,1 km/h (3 Bft)
26.03.2010 19:00 5,4 C 92 % 1010,4 hPa 0,0 l/m SW 17,4 km/h (3 Bft)
26.03.2010 20:00 4,9 C 93 % 1010,9 hPa 0,0 l/m SW 14,6 km/h (3 Bft)
26.03.2010 21:00 4,6 C 93 % 1011,4 hPa 0,2 l/m SW 11,7 km/h (2 Bft)
26.03.2010 22:00 4,8 C 92 % 1011,4 hPa 0,0 l/m W-SW 18,6 km/h (3 Bft)
26.03.2010 23:00 5,3 C 90 % 1011,4 hPa 0,0 l/m W-SW 17,3 km/h (3 Bft)
27.03.2010 00:00 5,2 C 89 % 1011,1 hPa 0,0 l/m SW 20,0 km/h (4 Bft)
27.03.2010 01:00 5,1 C 90 % 1011,0 hPa 0,0 l/m W-SW 16,2 km/h (3 Bft)
27.03.2010 02:00 4,9 C 91 % 1010,7 hPa 0,2 l/m W 16,0 km/h (3 Bft)
27.03.2010 03:00 4,8 C 91 % 1010,4 hPa 0,4 l/m W-SW 19,8 km/h (4 Bft)
27.03.2010 04:00 4,4 C 91 % 1010,4 hPa 0,0 l/m W 21,8 km/h (4 Bft)
27.03.2010 05:00 4,2 C 92 % 1010,5 hPa 0,0 l/m SW 17,6 km/h (3 Bft)
27.03.2010 06:00 3,8 C 94 % 1010,2 hPa 0,0 l/m S-SW 11,2 km/h (2 Bft)
27.03.2010 07:00 4,1 C 95 % 1010,0 hPa 0,0 l/m S-SW 9,5 km/h (2 Bft)
27.03.2010 08:00 5,8 C 89 % 1009,7 hPa 0,0 l/m SW 13,8 km/h (3 Bft)
27.03.2010 09:00 7,3 C 82 % 1009,3 hPa 0,0 l/m W-SW 14,8 km/h (3 Bft)
27.03.2010 10:00 7,6 C 78 % 1009,7 hPa 0,0 l/m W-SW 18,9 km/h (3 Bft)
27.03.2010 11:00 8,2 C 75 % 1009,2 hPa 0,0 l/m SW 27,8 km/h (4 Bft)
27.03.2010 12:00 8,9 C 70 % 1008,9 hPa 0,0 l/m W-SW 26,8 km/h (4 Bft)
27.03.2010 13:00 10,2 C 63 % 1008,2 hPa 0,0 l/m W-SW 22,0 km/h (4 Bft)
27.03.2010 14:00 11,1 C 57 % 1007,6 hPa 0,0 l/m W 21,6 km/h (4 Bft)
27.03.2010 15:00 11,4 C 53 % 1007,2 hPa 0,0 l/m W-NW 21,7 km/h (4 Bft)
27.03.2010 16:00 11,9 C 51 % 1006,9 hPa 0,0 l/m W 29,6 km/h (5 Bft)
27.03.2010 17:00 11,0 C 55 % 1007,2 hPa 0,0 l/m W-SW 22,9 km/h (4 Bft)
27.03.2010 18:00 9,7 C 62 % 1007,7 hPa 0,0 l/m W 17,9 km/h (3 Bft)
27.03.2010 19:00 7,9 C 78 % 1009,1 hPa 0,2 l/m W-SW 21,4 km/h (4 Bft)
27.03.2010 20:00 7,1 C 82 % 1010,0 hPa 0,0 l/m SW 20,9 km/h (4 Bft)
27.03.2010 21:00 6,4 C 87 % 1010,8 hPa 0,0 l/m W-SW 21,4 km/h (4 Bft)
27.03.2010 22:00 6,0 C 87 % 1011,1 hPa 0,0 l/m W-SW 22,4 km/h (4 Bft)
27.03.2010 23:00 6,3 C 88 % 1011,5 hPa 0,2 l/m SW 20,8 km/h (4 Bft)
28.03.2010 00:00 6,3 C 89 % 1011,8 hPa 0,0 l/m W-SW 18,1 km/h (3 Bft)
28.03.2010 01:00 6,2 C 88 % 1012,1 hPa 0,0 l/m W-SW 21,6 km/h (4 Bft)
28.03.2010 03:00 6,1 C 89 % 1012,5 hPa 0,0 l/m W-SW 15,3 km/h (3 Bft)
28.03.2010 04:00 5,8 C 90 % 1012,9 hPa 0,0 l/m W-SW 14,6 km/h (3 Bft)
28.03.2010 05:00 5,9 C 91 % 1013,1 hPa 0,0 l/m SW 17,0 km/h (3 Bft)
28.03.2010 06:00 5,7 C 89 % 1013,5 hPa 0,0 l/m W-SW 18,8 km/h (3 Bft)
28.03.2010 07:00 5,5 C 90 % 1013,7 hPa 0,0 l/m W-SW 20,4 km/h (4 Bft)
28.03.2010 08:00 5,6 C 92 % 1014,4 hPa 0,4 l/m W-SW 15,8 km/h (3 Bft)
28.03.2010 09:00 6,2 C 91 % 1014,7 hPa 0,4 l/m W-SW 22,1 km/h (4 Bft)
28.03.2010 10:00 6,8 C 89 % 1015,1 hPa 1,0 l/m W-SW 24,3 km/h (4 Bft)
28.03.2010 11:00 7,7 C 84 % 1015,2 hPa 0,0 l/m SW 26,7 km/h (4 Bft)
28.03.2010 12:00 8,1 C 80 % 1014,7 hPa 0,0 l/m W-SW 26,8 km/h (4 Bft)
28.03.2010 13:00 8,7 C 77 % 1014,0 hPa 0,0 l/m W-SW 23,2 km/h (4 Bft)
28.03.2010 14:00 9,2 C 74 % 1013,4 hPa 0,0 l/m W 23,3 km/h (4 Bft)
28.03.2010 15:00 9,6 C 72 % 1012,7 hPa 0,0 l/m W-SW 22,9 km/h (4 Bft)
28.03.2010 16:00 9,6 C 73 % 1012,3 hPa 0,0 l/m W-SW 21,3 km/h (4 Bft)
28.03.2010 17:00 9,2 C 76 % 1012,0 hPa 0,0 l/m W-SW 19,6 km/h (3 Bft)
28.03.2010 18:00 8,6 C 81 % 1012,0 hPa 0,0 l/m W-SW 22,5 km/h (4 Bft)
28.03.2010 19:00 7,9 C 86 % 1012,3 hPa 0,0 l/m W-SW 18,6 km/h (3 Bft)
28.03.2010 20:00 7,6 C 89 % 1012,3 hPa 0,2 l/m SW 24,0 km/h (4 Bft)
28.03.2010 21:00 7,6 C 91 % 1012,3 hPa 0,0 l/m SW 25,1 km/h (4 Bft)
28.03.2010 22:00 7,8 C 91 % 1012,4 hPa 0,2 l/m SW 25,5 km/h (4 Bft)
28.03.2010 23:00 7,7 C 93 % 1012,0 hPa 0,0 l/m W-SW 23,9 km/h (4 Bft)
Min-Datum _ 23.03.10 25.03.10 26.03.10 - - 22.03.10
_ Min-Zeit 06:35 14:25 11:30 - - 00:20
Minimum _ 0,1 C 28 % 1000,7 hPa - - 0,0 km/h (0 Bft)
Max-Datum _ 26.03.10 23.03.10 22.03.10 28.03.10 - 26.03.10
_ Max-Zeit 12:00 07:55 07:35 10:00 - 12:35
Maximum _ 21,8 C 99 % 1022,0 hPa 1,0 l/m - 56,3 km/h
W-SW (7 Bft)
Durchschnitt _ 8,8 C 74 % 1012,9 hPa #4,8 l/m W-SW 10,9 km/h (2 Bft)